Time;durP1;ratioP1;P1;durP2;ratioP2;P2;SDS_P1;SDS_P2;PMS_P1;PMS_P2;Temp;Humidity;BMP_temperature;BMP_pressure;BME280_temperature;BME280_humidity;BME280_pressure;Samples;Min_cycle;Max_cycle;Signal;HPM_P1;HPM_P2
2024/01/12 00:00:00;;;;;;;8.45;3.17;;;;;;;-4.56;90.92;94662.66;5093075;28;20655;-74
2024/01/12 00:02:28;;;;;;;4.57;2.17;;;;;;;-4.55;91.08;94659.00;5091166;28;20207;-74
2024/01/12 00:04:57;;;;;;;9.15;3.15;;;;;;;-4.41;90.58;94665.63;5093531;28;20203;-75
2024/01/12 00:07:24;;;;;;;3.17;2.08;;;;;;;-4.44;90.67;94650.22;5090663;28;20272;-76
2024/01/12 00:09:53;;;;;;;6.10;2.63;;;;;;;-4.52;90.00;94653.25;5092633;28;20206;-73
2024/01/12 00:12:19;;;;;;;2.25;1.48;;;;;;;-4.53;90.20;94651.63;5093207;28;20206;-73
2024/01/12 00:14:46;;;;;;;5.40;2.78;;;;;;;-4.48;89.81;94645.63;5093507;28;20206;-73
2024/01/12 00:17:18;;;;;;;5.60;1.98;;;;;;;-4.49;88.82;94655.41;5086523;28;20203;-74
2024/01/12 00:19:44;;;;;;;4.32;1.52;;;;;;;-4.40;88.25;94646.09;5089863;28;20261;-74
2024/01/12 00:22:11;;;;;;;2.55;2.10;;;;;;;-4.37;87.31;94644.78;5092745;28;20221;-74
2024/01/12 00:24:38;;;;;;;2.85;1.60;;;;;;;-4.30;86.79;94648.91;5093118;28;20206;-73
2024/01/12 00:27:06;;;;;;;1.88;1.67;;;;;;;-4.19;85.73;94649.13;5090458;28;20226;-76
2024/01/12 00:29:33;;;;;;;3.47;1.80;;;;;;;-4.21;85.76;94649.34;5091570;28;20666;-75
2024/01/12 00:32:00;;;;;;;1.90;1.70;;;;;;;-4.18;84.06;94648.88;5091718;28;20213;-76
2024/01/12 00:34:27;;;;;;;4.85;2.33;;;;;;;-4.10;84.07;94645.06;5090030;28;20229;-75
2024/01/12 00:36:54;;;;;;;0.68;0.68;;;;;;;-3.86;80.01;94645.75;5093483;28;20859;-74
2024/01/12 00:39:21;;;;;;;6.40;1.63;;;;;;;-3.74;78.26;94654.44;5092539;28;20289;-76
2024/01/12 00:41:50;;;;;;;4.03;1.60;;;;;;;-3.75;78.04;94652.84;5092592;28;20202;-76
2024/01/12 00:44:19;;;;;;;2.83;1.67;;;;;;;-3.58;76.38;94638.59;5084551;28;20198;-75
2024/01/12 00:46:50;;;;;;;1.23;1.10;;;;;;;-3.49;74.69;94651.41;5083672;28;20487;-74
2024/01/12 00:49:17;;;;;;;1.10;1.08;;;;;;;-3.52;74.73;94646.59;5084729;28;20299;-72
2024/01/12 00:51:46;;;;;;;3.40;1.05;;;;;;;-3.59;76.02;94644.94;5088204;28;20255;-76
2024/01/12 00:54:13;;;;;;;1.33;0.70;;;;;;;-3.55;75.72;94626.69;5089003;28;20566;-76
2024/01/12 00:56:41;;;;;;;3.53;2.13;;;;;;;-3.47;75.53;94633.47;5083711;28;20203;-77
2024/01/12 00:59:11;;;;;;;1.05;0.77;;;;;;;-3.42;73.33;94634.34;5087709;28;20242;-76
2024/01/12 01:01:40;;;;;;;2.45;1.73;;;;;;;-3.20;71.84;94642.38;5083868;28;20199;-76
2024/01/12 01:04:06;;;;;;;3.92;1.90;;;;;;;-3.01;70.99;94649.03;5079355;28;20268;-77
2024/01/12 01:06:33;;;;;;;0.93;0.80;;;;;;;-3.02;69.86;94647.41;5083717;28;20226;-77
2024/01/12 01:09:00;;;;;;;3.13;1.50;;;;;;;-2.82;67.67;94636.28;5086066;28;20213;-76
2024/01/12 01:11:27;;;;;;;1.77;1.25;;;;;;;-2.94;69.57;94639.03;5086320;28;20194;-75
2024/01/12 01:13:54;;;;;;;1.02;0.90;;;;;;;-2.90;69.27;94634.06;5080503;28;20211;-75
2024/01/12 01:16:23;;;;;;;2.40;1.25;;;;;;;-2.86;69.06;94620.06;5086317;28;20541;-75
2024/01/12 01:18:54;;;;;;;3.55;1.60;;;;;;;-2.82;67.20;94615.09;5086375;28;20255;-76
2024/01/12 01:21:22;;;;;;;1.17;0.63;;;;;;;-2.81;66.37;94613.25;5085225;28;20198;-75
2024/01/12 01:23:47;;;;;;;3.85;2.35;;;;;;;-2.79;66.71;94624.41;5085156;28;20203;-78
2024/01/12 01:26:14;;;;;;;1.48;1.23;;;;;;;-2.86;67.27;94620.06;5083985;28;20301;-76
2024/01/12 01:28:41;;;;;;;2.65;0.80;;;;;;;-2.88;67.36;94600.19;5086996;28;20198;-76
2024/01/12 01:31:08;;;;;;;1.95;1.25;;;;;;;-2.89;65.02;94596.72;5085554;28;20544;-76
2024/01/12 01:33:37;;;;;;;1.08;1.00;;;;;;;-2.88;65.18;94600.19;5086430;28;20194;-76
2024/01/12 01:36:07;;;;;;;1.40;1.30;;;;;;;-2.93;64.34;94582.34;5086462;28;20305;-76
2024/01/12 01:38:33;;;;;;;1.67;1.10;;;;;;;-2.95;65.63;94581.78;5088236;28;20285;-76
2024/01/12 01:41:01;;;;;;;1.25;1.15;;;;;;;-2.96;65.30;94585.50;5091717;28;20207;-76
2024/01/12 01:43:28;;;;;;;3.05;1.92;;;;;;;-3.09;65.74;94577.09;5090535;28;20628;-76
2024/01/12 01:45:55;;;;;;;2.13;1.55;;;;;;;-3.30;67.26;94583.97;5090671;28;20218;-76
2024/01/12 01:48:22;;;;;;;0.70;0.70;;;;;;;-3.42;67.90;94588.53;5091695;28;20206;-74
2024/01/12 01:50:51;;;;;;;3.20;2.13;;;;;;;-3.50;70.37;94579.16;5090795;28;20226;-75
2024/01/12 01:53:20;;;;;;;3.15;1.77;;;;;;;-3.67;71.31;94584.44;5091570;28;20609;-75
2024/01/12 01:55:49;;;;;;;1.42;1.33;;;;;;;-3.75;72.59;94578.75;5087451;28;20285;-76
2024/01/12 01:58:17;;;;;;;1.77;1.38;;;;;;;-3.96;74.38;94572.28;5091462;28;20221;-75
2024/01/12 02:00:45;;;;;;;3.08;1.33;;;;;;;-4.01;74.12;94580.16;5091956;28;20235;-75
2024/01/12 02:03:12;;;;;;;4.75;1.00;;;;;;;-3.87;73.12;94573.53;5087524;28;20220;-75
2024/01/12 02:05:42;;;;;;;2.45;1.65;;;;;;;-3.94;74.09;94575.50;5085294;28;20325;-74
2024/01/12 02:08:08;;;;;;;4.88;1.75;;;;;;;-3.82;73.74;94583.38;5085743;28;20242;-76
2024/01/12 02:10:37;;;;;;;1.02;1.02;;;;;;;-3.85;72.75;94571.44;5091186;28;20198;-73
2024/01/12 02:13:04;;;;;;;5.22;1.73;;;;;;;-3.78;71.92;94564.16;5090819;28;20210;-75
2024/01/12 02:15:31;;;;;;;1.60;1.08;;;;;;;-3.71;70.56;94572.75;5089432;28;20214;-73
2024/01/12 02:18:01;;;;;;;4.47;2.28;;;;;;;-3.64;70.87;94577.84;5073178;28;20195;-73
2024/01/12 02:20:29;;;;;;;2.42;2.10;;;;;;;-3.61;71.67;94580.84;5091001;28;20216;-73
2024/01/12 02:22:57;;;;;;;1.67;1.33;;;;;;;-3.56;70.75;94577.47;5091473;28;20217;-74
2024/01/12 02:25:24;;;;;;;7.45;1.75;;;;;;;-3.56;70.90;94576.69;5094407;28;20538;-76
2024/01/12 02:27:51;;;;;;;2.13;1.23;;;;;;;-3.51;69.63;94576.72;5093891;28;20286;-74
2024/01/12 02:30:19;;;;;;;1.48;0.90;;;;;;;-3.46;68.57;94574.19;5095213;28;20202;-75
2024/01/12 02:32:46;;;;;;;1.42;1.10;;;;;;;-3.33;67.32;94563.25;5094486;28;20206;-72
2024/01/12 02:35:12;;;;;;;1.27;0.95;;;;;;;-3.30;66.87;94566.22;5095161;28;20567;-73
2024/01/12 02:37:39;;;;;;;1.33;1.23;;;;;;;-3.18;67.93;94579.38;5094906;28;20213;-74
2024/01/12 02:40:08;;;;;;;2.20;1.60;;;;;;;-3.18;67.60;94571.41;5095312;28;20548;-73
2024/01/12 02:42:35;;;;;;;0.73;0.55;;;;;;;-3.34;66.94;94559.81;5095339;28;20206;-74
2024/01/12 02:45:02;;;;;;;1.55;1.17;;;;;;;-3.52;68.53;94572.47;5095081;28;20206;-75
2024/01/12 02:47:29;;;;;;;2.42;1.73;;;;;;;-3.58;70.12;94564.47;5094862;28;20218;-75
2024/01/12 02:49:56;;;;;;;2.83;1.30;;;;;;;-3.52;70.88;94575.13;5094438;28;20675;-75
2024/01/12 02:52:22;;;;;;;2.70;2.15;;;;;;;-3.64;71.08;94583.97;5094721;28;20209;-74
2024/01/12 02:54:49;;;;;;;1.73;1.25;;;;;;;-3.82;71.50;94592.13;5094464;28;20207;-77
2024/01/12 02:57:17;;;;;;;2.30;1.52;;;;;;;-3.85;72.08;94597.91;5094607;28;20212;-77
2024/01/12 02:59:44;;;;;;;3.65;1.92;;;;;;;-3.94;73.46;94596.66;5094690;28;20234;-77
2024/01/12 03:02:11;;;;;;;1.73;1.20;;;;;;;-4.07;74.55;94599.63;5091585;28;20204;-77
2024/01/12 03:04:38;;;;;;;3.78;2.47;;;;;;;-4.20;76.17;94597.25;5086958;28;20213;-77
2024/01/12 03:07:05;;;;;;;3.03;0.95;;;;;;;-4.28;76.59;94595.00;5094643;28;20565;-76
2024/01/12 03:09:32;;;;;;;1.00;0.90;;;;;;;-4.27;76.71;94599.25;5094714;28;20209;-77
2024/01/12 03:11:58;;;;;;;4.53;2.28;;;;;;;-4.38;77.55;94580.56;5095028;28;20331;-76
2024/01/12 03:14:27;;;;;;;1.52;1.05;;;;;;;-4.40;78.06;94576.56;5094154;28;20202;-76
2024/01/12 03:16:53;;;;;;;10.32;2.28;;;;;;;-4.27;78.25;94591.34;5094009;28;20218;-76
2024/01/12 03:19:20;;;;;;;8.15;4.18;;;;;;;-4.24;78.70;94585.56;5073761;28;20198;-76
2024/01/12 03:21:47;;;;;;;5.00;2.53;;;;;;;-4.31;78.92;94572.50;5094827;28;20217;-76
2024/01/12 03:24:14;;;;;;;5.85;2.53;;;;;;;-4.32;78.42;94574.31;5092642;28;20202;-76
2024/01/12 03:26:41;;;;;;;8.80;2.63;;;;;;;-4.11;77.58;94574.72;5094373;28;20234;-77
2024/01/12 03:29:08;;;;;;;2.42;1.67;;;;;;;-4.05;76.81;94584.31;5094124;28;20206;-75
2024/01/12 03:31:36;;;;;;;4.13;1.80;;;;;;;-3.99;76.80;94583.38;5092860;28;20279;-77
2024/01/12 03:34:03;;;;;;;4.57;2.13;;;;;;;-4.05;77.15;94584.31;5087792;28;20218;-77
2024/01/12 03:36:29;;;;;;;2.55;1.23;;;;;;;-4.05;76.98;94586.97;5093799;28;20209;-77
2024/01/12 03:38:56;;;;;;;3.00;1.98;;;;;;;-4.00;77.56;94587.88;5086770;28;20203;-76
2024/01/12 03:41:23;;;;;;;2.03;1.58;;;;;;;-3.99;77.21;94584.19;5095015;28;20677;-76
2024/01/12 03:43:50;;;;;;;3.70;2.33;;;;;;;-3.96;76.41;94580.22;5094731;28;20643;-77
2024/01/12 03:46:16;;;;;;;2.00;1.80;;;;;;;-3.97;76.53;94570.72;5093582;28;20206;-76
2024/01/12 03:48:45;;;;;;;2.92;1.80;;;;;;;-3.85;77.20;94558.22;5092119;28;20203;-76
2024/01/12 03:51:15;;;;;;;2.70;1.30;;;;;;;-3.71;74.79;94559.50;5094057;28;20229;-76
2024/01/12 03:53:41;;;;;;;2.90;1.42;;;;;;;-3.56;73.58;94566.88;5093753;28;20202;-77
2024/01/12 03:56:08;;;;;;;1.25;1.08;;;;;;;-3.53;72.25;94566.38;5083080;28;20241;-76
2024/01/12 03:58:38;;;;;;;5.50;1.42;;;;;;;-3.44;71.95;94570.25;5093763;28;20214;-76
2024/01/12 04:01:06;;;;;;;1.58;1.48;;;;;;;-3.29;72.00;94564.38;5093556;28;20698;-76
2024/01/12 04:03:33;;;;;;;2.10;1.23;;;;;;;-3.29;71.20;94551.13;5076926;28;20692;-76
2024/01/12 04:06:01;;;;;;;4.00;2.25;;;;;;;-3.14;71.11;94547.91;5093640;28;20213;-76
2024/01/12 04:08:28;;;;;;;4.18;2.10;;;;;;;-3.04;71.02;94556.78;5093564;28;20249;-75
2024/01/12 04:10:56;;;;;;;0.90;0.90;;;;;;;-3.03;70.04;94550.44;5093237;28;20966;-77
2024/01/12 04:13:23;;;;;;;1.02;0.95;;;;;;;-2.78;74.56;94557.09;5093482;28;20628;-74
2024/01/12 04:15:49;;;;;;;4.18;1.75;;;;;;;-2.54;73.44;94559.25;5089752;28;20210;-72
2024/01/12 04:18:16;;;;;;;2.75;1.88;;;;;;;-2.51;72.42;94555.31;5093281;28;20623;-76
2024/01/12 04:20:43;;;;;;;1.40;1.30;;;;;;;-2.87;71.14;94560.16;5093200;28;20221;-76
2024/01/12 04:23:11;;;;;;;1.75;1.30;;;;;;;-2.98;71.24;94558.44;5093287;28;20218;-76
2024/01/12 04:25:38;;;;;;;1.77;0.65;;;;;;;-3.02;71.26;94552.03;5083540;28;20218;-75
2024/01/12 04:28:05;;;;;;;2.30;1.35;;;;;;;-3.01;72.02;94558.94;5090799;28;20241;-77
2024/01/12 04:30:32;;;;;;;2.60;1.15;;;;;;;-3.09;71.29;94558.53;5092222;28;20209;-75
2024/01/12 04:32:59;;;;;;;2.25;1.42;;;;;;;-3.15;71.59;94568.28;5091436;28;20213;-76
2024/01/12 04:35:26;;;;;;;7.07;2.53;;;;;;;-3.17;72.43;94565.06;5092774;28;20205;-77
2024/01/12 04:37:53;;;;;;;2.58;1.17;;;;;;;-3.11;71.76;94564.09;5090199;28;20637;-77
2024/01/12 04:40:21;;;;;;;1.85;1.08;;;;;;;-3.20;71.75;94557.63;5084148;28;20305;-77
2024/01/12 04:42:48;;;;;;;0.40;0.40;;;;;;;-3.30;72.38;94563.56;5087005;28;20199;-77
2024/01/12 04:45:15;;;;;;;6.20;2.08;;;;;;;-3.30;73.29;94560.13;5092249;28;20202;-76
2024/01/12 04:47:41;;;;;;;1.13;0.77;;;;;;;-3.36;73.57;94561.09;5085418;28;20233;-76
2024/01/12 04:50:08;;;;;;;3.83;1.77;;;;;;;-3.32;73.97;94562.22;5092545;28;20233;-76
2024/01/12 04:52:35;;;;;;;1.13;1.00;;;;;;;-3.26;74.06;94574.47;5091445;28;20212;-78
2024/01/12 04:55:02;;;;;;;2.25;1.40;;;;;;;-3.32;73.71;94567.50;5079297;28;20202;-75
2024/01/12 04:57:30;;;;;;;3.63;1.65;;;;;;;-3.35;73.38;94573.28;5079091;28;20203;-77
2024/01/12 04:59:57;;;;;;;1.45;1.27;;;;;;;-3.51;74.27;94576.72;5091521;28;20291;-78
2024/01/12 05:02:24;;;;;;;3.85;1.80;;;;;;;-3.54;75.01;94571.91;5088414;28;20198;-76
2024/01/12 05:04:51;;;;;;;1.33;1.25;;;;;;;-3.74;75.77;94581.16;5092471;28;20218;-77
2024/01/12 05:07:18;;;;;;;2.13;1.27;;;;;;;-3.83;76.49;94579.16;5086360;28;20222;-75
2024/01/12 05:09:45;;;;;;;1.95;1.85;;;;;;;-3.91;77.96;94585.63;5082561;28;20618;-76
2024/01/12 05:12:14;;;;;;;1.83;1.13;;;;;;;-3.92;78.17;94591.94;5092496;28;20214;-76
2024/01/12 05:14:43;;;;;;;2.60;1.38;;;;;;;-4.01;78.29;94580.97;5092319;28;20217;-76
2024/01/12 05:17:10;;;;;;;4.95;2.35;;;;;;;-4.14;79.50;94606.91;5092084;28;20202;-79
2024/01/12 05:19:37;;;;;;;3.88;1.88;;;;;;;-4.14;79.66;94606.91;5091035;28;20217;-76
2024/01/12 05:22:05;;;;;;;3.53;1.65;;;;;;;-4.02;77.67;94597.06;5085820;28;20215;-75
2024/01/12 05:24:32;;;;;;;3.90;2.28;;;;;;;-3.92;78.36;94610.47;5074400;28;20202;-75
2024/01/12 05:27:00;;;;;;;2.38;1.35;;;;;;;-3.87;78.29;94600.00;5092271;28;20203;-75
2024/01/12 05:29:26;;;;;;;2.25;1.80;;;;;;;-3.84;77.73;94601.34;5092162;28;20544;-77
2024/01/12 05:31:55;;;;;;;3.92;2.08;;;;;;;-3.95;78.50;94616.22;5092072;28;20206;-76
2024/01/12 05:34:21;;;;;;;1.85;1.45;;;;;;;-3.92;78.41;94614.97;5089552;28;20300;-77
2024/01/12 05:36:48;;;;;;;5.03;3.80;;;;;;;-3.98;77.84;94609.59;5082276;28;20539;-76
2024/01/12 05:39:16;;;;;;;2.83;1.30;;;;;;;-4.03;78.59;94606.03;5092434;28;20209;-77
2024/01/12 05:41:43;;;;;;;4.40;2.65;;;;;;;-3.95;78.48;94616.22;5092537;28;20647;-78
2024/01/12 05:44:09;;;;;;;2.10;1.90;;;;;;;-4.07;79.18;94603.06;5090819;28;20206;-78
2024/01/12 05:46:36;;;;;;;3.63;2.83;;;;;;;-4.10;79.01;94618.63;5092386;28;20650;-76
2024/01/12 05:49:05;;;;;;;8.35;3.33;;;;;;;-4.14;79.98;94612.19;5091570;28;20222;-75
2024/01/12 05:51:32;;;;;;;4.38;2.47;;;;;;;-4.21;80.72;94608.88;5092050;28;20583;-77
2024/01/12 05:53:59;;;;;;;8.25;2.42;;;;;;;-4.30;81.61;94616.41;5091654;28;20206;-77
2024/01/12 05:56:26;;;;;;;4.22;2.35;;;;;;;-4.40;81.85;94609.09;5092057;28;20214;-74
2024/01/12 05:58:52;;;;;;;7.32;2.85;;;;;;;-4.42;82.71;94618.28;5091560;28;20220;-77
2024/01/12 06:01:21;;;;;;;7.13;3.25;;;;;;;-4.21;81.76;94617.63;5091713;28;20212;-76
2024/01/12 06:03:48;;;;;;;3.08;1.92;;;;;;;-4.24;80.33;94622.59;5092387;28;20195;-77
2024/01/12 06:06:16;;;;;;;2.45;1.70;;;;;;;-4.02;78.60;94620.88;5093199;28;20568;-76
2024/01/12 06:08:43;;;;;;;4.75;3.70;;;;;;;-3.94;77.25;94617.84;5090587;28;20214;-76
2024/01/12 06:11:10;;;;;;;5.97;2.35;;;;;;;-3.97;77.32;94615.69;5091944;28;20210;-76
2024/01/12 06:13:37;;;;;;;3.60;2.00;;;;;;;-3.94;77.24;94618.63;5086379;28;20203;-76
2024/01/12 06:16:06;;;;;;;4.00;1.83;;;;;;;-3.97;77.35;94613.03;5085785;28;20202;-76
2024/01/12 06:18:33;;;;;;;6.28;2.00;;;;;;;-3.94;77.60;94617.84;5095275;28;20200;-76
2024/01/12 06:21:00;;;;;;;1.67;1.58;;;;;;;-3.88;77.28;94627.47;5098235;28;20730;-77
2024/01/12 06:23:28;;;;;;;5.03;2.40;;;;;;;-3.69;77.09;94628.06;5092993;28;20198;-75
2024/01/12 06:25:55;;;;;;;2.28;2.08;;;;;;;-3.49;76.28;94635.53;5097575;28;20297;-74
2024/01/12 06:28:21;;;;;;;1.73;1.63;;;;;;;-3.39;76.40;94630.41;5091653;28;20241;-74
2024/01/12 06:30:48;;;;;;;1.98;1.77;;;;;;;-3.01;76.47;94635.78;5086857;28;20210;-75
2024/01/12 06:33:15;;;;;;;6.78;2.00;;;;;;;-2.85;72.63;94639.41;5091182;28;20313;-74
2024/01/12 06:35:42;;;;;;;5.22;1.75;;;;;;;-2.97;72.38;94617.53;5089816;28;20210;-74
2024/01/12 06:38:10;;;;;;;6.13;2.03;;;;;;;-2.96;70.55;94630.53;5073760;28;20206;-74
2024/01/12 06:40:38;;;;;;;1.15;1.08;;;;;;;-2.79;69.44;94635.81;5091142;28;20673;-75
2024/01/12 06:43:05;;;;;;;1.13;1.08;;;;;;;-3.05;69.38;94631.19;5091361;28;20266;-75
2024/01/12 06:45:32;;;;;;;1.80;1.67;;;;;;;-3.11;70.23;94638.25;5091416;28;20646;-74
2024/01/12 06:48:00;;;;;;;4.95;2.03;;;;;;;-3.03;69.78;94643.16;5089191;28;20689;-74
2024/01/12 06:50:28;;;;;;;1.60;1.15;;;;;;;-2.91;69.55;94643.88;5082069;28;20228;-74
2024/01/12 06:52:55;;;;;;;4.07;1.38;;;;;;;-3.07;70.32;94649.97;5081460;28;20205;-74
2024/01/12 06:55:22;;;;;;;4.60;1.75;;;;;;;-3.13;69.15;94635.03;5078401;28;20256;-73
2024/01/12 06:57:50;;;;;;;1.65;1.40;;;;;;;-2.96;70.04;94638.47;5071922;28;20195;-75
2024/01/12 07:00:19;;;;;;;1.58;1.10;;;;;;;-2.91;69.41;94643.88;5085061;28;20223;-73
2024/01/12 07:02:46;;;;;;;1.98;1.08;;;;;;;-2.84;69.63;94642.88;5084395;28;20286;-75
2024/01/12 07:05:14;;;;;;;2.45;1.60;;;;;;;-2.76;69.37;94639.81;5083543;28;20241;-76
2024/01/12 07:07:42;;;;;;;2.88;1.77;;;;;;;-2.76;69.03;94629.22;5086039;28;20284;-75
2024/01/12 07:10:10;;;;;;;2.75;1.70;;;;;;;-2.75;68.70;94623.69;5090439;28;20676;-76
2024/01/12 07:12:36;;;;;;;5.30;2.15;;;;;;;-2.80;69.19;94638.69;5094045;28;20198;-73
2024/01/12 07:15:06;;;;;;;2.83;2.03;;;;;;;-2.76;70.07;94651.22;5094267;28;20210;-74
2024/01/12 07:17:33;;;;;;;6.75;2.05;;;;;;;-2.89;70.39;94652.38;5094689;28;20210;-72
2024/01/12 07:19:59;;;;;;;3.40;1.15;;;;;;;-3.14;71.22;94657.28;5094252;28;20214;-73
2024/01/12 07:22:26;;;;;;;1.17;1.15;;;;;;;-3.08;70.66;94664.25;5094170;28;20202;-72
2024/01/12 07:24:55;;;;;;;1.48;1.10;;;;;;;-3.05;70.64;94668.28;5093716;28;20198;-77
2024/01/12 07:27:21;;;;;;;2.90;1.80;;;;;;;-3.09;71.37;94673.25;5093658;28;20225;-75
2024/01/12 07:29:49;;;;;;;2.95;1.65;;;;;;;-3.09;72.04;94678.56;5094313;28;20613;-76
2024/01/12 07:32:17;;;;;;;3.97;1.58;;;;;;;-2.91;72.18;94680.16;5094470;28;20206;-78
2024/01/12 07:34:44;;;;;;;3.50;2.03;;;;;;;-2.87;71.69;94671.47;5093100;28;20206;-79
2024/01/12 07:37:11;;;;;;;2.88;1.50;;;;;;;-2.83;71.69;94692.97;5081858;28;20214;-78
2024/01/12 07:39:37;;;;;;;1.65;1.23;;;;;;;-2.87;71.34;94687.34;5080457;28;20714;-78
2024/01/12 07:42:05;;;;;;;3.97;2.42;;;;;;;-2.73;72.90;94698.44;5093803;28;20264;-78
2024/01/12 07:44:32;;;;;;;5.13;2.42;;;;;;;-2.60;72.15;94697.31;5094078;28;20199;-75
2024/01/12 07:46:59;;;;;;;1.73;1.25;;;;;;;-2.41;72.31;94701.28;5086423;28;20560;-76
2024/01/12 07:49:27;;;;;;;1.65;1.48;;;;;;;-2.23;70.51;94708.94;5094135;28;20608;-77
2024/01/12 07:51:54;;;;;;;5.35;2.08;;;;;;;-2.64;72.34;94706.78;5093413;28;20221;-76
2024/01/12 07:54:20;;;;;;;1.00;0.90;;;;;;;-2.63;73.41;94709.19;5092788;28;20213;-76
2024/01/12 07:56:47;;;;;;;4.72;2.50;;;;;;;-2.54;71.45;94714.88;5093427;28;20638;-76
2024/01/12 07:59:14;;;;;;;8.73;1.73;;;;;;;-2.47;73.92;94728.78;5092915;28;20276;-77
2024/01/12 08:01:43;;;;;;;2.30;0.88;;;;;;;-2.44;72.29;94727.47;5093360;28;20202;-77
2024/01/12 08:04:10;;;;;;;1.83;1.13;;;;;;;-2.27;71.13;94729.03;5092563;28;20210;-82
2024/01/12 08:06:38;;;;;;;2.13;1.88;;;;;;;-2.01;71.81;94721.41;5093600;28;20245;-75
2024/01/12 08:09:10;;;;;;;2.78;1.58;;;;;;;-2.21;72.71;94722.78;5093070;28;20222;-74
2024/01/12 08:11:36;;;;;;;5.32;2.72;;;;;;;-2.25;72.44;94728.81;5093966;28;20209;-76
2024/01/12 08:14:03;;;;;;;7.13;2.33;;;;;;;-2.32;72.15;94742.22;5092849;28;20204;-76
2024/01/12 08:16:31;;;;;;;3.38;2.03;;;;;;;-2.36;74.27;94735.81;5091945;28;20226;-79
2024/01/12 08:18:58;;;;;;;0.65;0.65;;;;;;;-2.46;74.14;94740.97;5081032;28;20596;-75
2024/01/12 08:21:25;;;;;;;2.80;2.53;;;;;;;-2.42;74.68;94731.50;5088856;28;20207;-75
2024/01/12 08:23:54;;;;;;;0.98;0.88;;;;;;;-2.26;73.58;94741.25;5092249;28;20209;-76
2024/01/12 08:26:21;;;;;;;1.65;1.00;;;;;;;-2.10;74.04;94741.47;5092459;28;20210;-76
2024/01/12 08:28:51;;;;;;;0.22;0.22;;;;;;;-2.07;73.51;94725.06;5092349;28;20222;-76
2024/01/12 08:31:18;;;;;;;1.88;1.63;;;;;;;-2.11;75.43;94731.91;5093037;28;20297;-73
2024/01/12 08:33:48;;;;;;;5.85;2.63;;;;;;;-2.27;75.57;94744.97;5092258;28;20221;-74
2024/01/12 08:36:15;;;;;;;4.47;2.22;;;;;;;-2.49;77.05;94746.78;5090958;28;20202;-77
2024/01/12 08:38:42;;;;;;;49.03;2.80;;;;;;;-2.34;76.43;94739.03;5090205;28;20647;-78
2024/01/12 08:41:11;;;;;;;2.28;1.48;;;;;;;-2.33;77.21;94764.53;5090107;28;20294;-75
2024/01/12 08:43:40;;;;;;;5.10;1.95;;;;;;;-2.20;76.93;94766.81;5092248;28;20606;-79
2024/01/12 08:46:08;;;;;;;3.42;1.50;;;;;;;-2.30;78.22;94779.94;5093201;28;20264;-75
2024/01/12 08:48:35;;;;;;;0.88;0.88;;;;;;;-2.28;77.99;94759.28;5092213;28;20226;-74
2024/01/12 08:51:02;;;;;;;0.80;0.80;;;;;;;-2.25;78.01;94764.09;5092381;28;20226;-76
2024/01/12 08:53:29;;;;;;;5.28;2.90;;;;;;;-1.93;77.84;94768.75;5091837;28;20245;-76
2024/01/12 08:55:55;;;;;;;1.90;1.70;;;;;;;-2.11;78.07;94763.75;5091932;28;20263;-75
2024/01/12 08:58:24;;;;;;;8.52;3.08;;;;;;;-2.38;80.56;94769.75;5091171;28;20586;-74
2024/01/12 09:00:51;;;;;;;14.02;3.38;;;;;;;-2.37;80.95;94765.25;5092077;28;20236;-76
2024/01/12 09:03:18;;;;;;;1.75;1.58;;;;;;;-2.33;80.22;94772.47;5073899;28;20564;-76
2024/01/12 09:05:45;;;;;;;6.25;2.70;;;;;;;-2.18;80.10;94763.91;5091981;28;20213;-75
2024/01/12 09:08:12;;;;;;;8.35;3.33;;;;;;;-2.59;80.94;94762.53;5091613;28;20670;-74
2024/01/12 09:10:38;;;;;;;1.73;1.63;;;;;;;-2.69;82.21;94778.28;5088234;28;20202;-75
2024/01/12 09:13:05;;;;;;;14.20;3.65;;;;;;;-2.34;81.68;94781.47;5092419;28;20232;-75
2024/01/12 09:15:34;;;;;;;9.38;3.15;;;;;;;-2.35;81.66;94787.81;5091595;28;20211;-76
2024/01/12 09:18:01;;;;;;;3.83;3.30;;;;;;;-2.40;82.13;94792.25;5092215;28;20198;-76
2024/01/12 09:20:28;;;;;;;4.13;2.78;;;;;;;-2.35;81.87;94787.03;5073574;28;20205;-75
2024/01/12 09:22:55;;;;;;;8.23;2.80;;;;;;;-2.51;82.72;94788.66;5091903;28;20288;-76
2024/01/12 09:25:22;;;;;;;5.07;2.50;;;;;;;-2.72;82.83;94792.00;5091963;28;20206;-75
2024/01/12 09:27:50;;;;;;;3.28;2.05;;;;;;;-2.88;84.74;94791.78;5092022;28;20210;-75
2024/01/12 09:30:20;;;;;;;4.22;2.47;;;;;;;-2.47;83.52;94776.50;5091876;28;20228;-75
2024/01/12 09:32:49;;;;;;;10.18;4.03;;;;;;;-2.46;83.24;94783.41;5091803;28;20678;-74
2024/01/12 09:35:15;;;;;;;8.40;2.30;;;;;;;-2.37;83.43;94755.44;5090983;28;20210;-75
2024/01/12 09:37:42;;;;;;;5.57;1.95;;;;;;;-2.52;83.72;94779.09;5091450;28;20206;-75
2024/01/12 09:40:12;;;;;;;5.45;3.17;;;;;;;-2.14;83.42;94770.34;5064471;28;20207;-75
2024/01/12 09:42:43;;;;;;;5.13;2.30;;;;;;;-2.14;83.31;94767.69;5091252;28;20214;-75
2024/01/12 09:45:13;;;;;;;8.15;3.92;;;;;;;-1.83;82.67;94759.06;5091861;28;20555;-77
2024/01/12 09:47:40;;;;;;;11.50;2.33;;;;;;;-1.84;82.73;94759.31;5090119;28;20201;-77
2024/01/12 09:50:11;;;;;;;6.43;3.65;;;;;;;-2.09;82.18;94745.72;5091195;28;20226;-78
2024/01/12 09:52:38;;;;;;;8.68;2.80;;;;;;;-2.27;83.08;94766.19;5084929;28;20198;-78
2024/01/12 09:55:06;;;;;;;5.97;3.28;;;;;;;-2.26;84.26;94766.97;5082177;28;20649;-81
2024/01/12 09:57:34;;;;;;;4.35;2.88;;;;;;;-2.13;82.62;94771.94;5091350;28;20649;-78
2024/01/12 10:00:05;;;;;;;10.50;2.35;;;;;;;-2.28;82.00;94769.88;5090902;28;20230;-80
2024/01/12 10:02:31;;;;;;;1.25;1.23;;;;;;;-2.15;83.05;94776.69;5083060;28;20229;-79
2024/01/12 10:04:58;;;;;;;5.63;2.72;;;;;;;-2.15;82.21;94790.75;5086453;28;20207;-80
2024/01/12 10:07:26;;;;;;;5.45;2.72;;;;;;;-2.28;82.83;94785.78;5091150;28;20219;-80
2024/01/12 10:09:53;;;;;;;5.93;2.63;;;;;;;-1.99;82.52;94783.00;5090925;28;20238;-79
2024/01/12 10:12:20;;;;;;;2.53;1.55;;;;;;;-2.09;83.19;94774.91;5091683;28;20536;-76
2024/01/12 10:14:58;;;;;;;9.10;4.22;;;;;;;-1.83;82.92;94764.38;5091118;28;20207;-77
2024/01/12 10:17:25;;;;;;;7.00;2.63;;;;;;;-2.38;82.89;94759.13;5089964;28;20330;-75
2024/01/12 10:19:52;;;;;;;4.72;2.90;;;;;;;-1.98;83.39;94758.06;5091081;28;20204;-79
2024/01/12 10:22:19;;;;;;;5.50;3.50;;;;;;;-1.90;82.75;94766.41;5090789;28;20248;-77
2024/01/12 10:24:56;;;;;;;3.60;2.67;;;;;;;-1.82;81.56;94757.22;5091189;28;20696;-76
2024/01/12 10:27:23;;;;;;;1.10;1.00;;;;;;;-1.84;82.83;94764.63;5091723;28;20316;-78
2024/01/12 10:29:50;;;;;;;2.60;1.23;;;;;;;-1.81;82.81;94764.13;5091424;28;20238;-76
2024/01/12 10:32:19;;;;;;;5.80;3.72;;;;;;;-1.92;82.94;94767.72;5090412;28;20566;-76
2024/01/12 10:34:47;;;;;;;0.98;0.90;;;;;;;-2.08;83.36;94763.25;5086941;28;20634;-75
2024/01/12 10:37:16;;;;;;;1.55;1.27;;;;;;;-1.92;83.73;94778.34;5090738;28;20205;-75
2024/01/12 10:39:47;;;;;;;8.20;1.58;;;;;;;-1.95;83.46;94790.25;5091165;28;20282;-73
2024/01/12 10:42:14;;;;;;;2.47;1.42;;;;;;;-1.97;83.17;94762.34;5085438;28;20229;-74
2024/01/12 10:44:42;;;;;;;5.82;3.30;;;;;;;-1.98;83.89;94789.91;5088131;28;20217;-76
2024/01/12 10:47:16;;;;;;;6.85;3.28;;;;;;;-1.94;83.59;94769.81;5086757;28;20213;-74
2024/01/12 10:49:49;;;;;;;2.53;2.35;;;;;;;-1.66;83.19;94751.03;5090277;28;20314;-75
2024/01/12 10:52:26;;;;;;;0.40;0.40;;;;;;;-1.65;83.06;94768.59;5084708;28;20210;-76
2024/01/12 10:55:00;;;;;;;9.07;1.83;;;;;;;-1.78;84.06;94755.69;5074438;28;20210;-74
2024/01/12 10:57:27;;;;;;;4.10;2.55;;;;;;;-1.62;82.21;94754.78;5084444;28;20574;-76
2024/01/12 10:59:55;;;;;;;14.98;1.95;;;;;;;-1.56;82.85;94767.09;5087480;28;20229;-75
2024/01/12 11:02:22;;;;;;;5.60;3.03;;;;;;;-1.62;82.63;94759.28;5093462;28;20218;-74
2024/01/12 11:04:49;;;;;;;5.35;0.50;;;;;;;-1.75;84.41;94746.41;5082898;28;20203;-75
2024/01/12 11:07:18;;;;;;;2.65;1.75;;;;;;;-1.64;84.01;94764.84;5095362;28;20619;-75
2024/01/12 11:09:45;;;;;;;1.52;1.17;;;;;;;-1.48;82.98;94769.28;5087351;28;20230;-75
2024/01/12 11:12:20;;;;;;;0.50;0.50;;;;;;;-1.18;83.03;94765.34;5094220;28;20578;-75
2024/01/12 11:14:49;;;;;;;1.65;1.55;;;;;;;-1.33;82.02;94781.13;5094742;28;20539;-73
2024/01/12 11:17:16;;;;;;;7.03;3.67;;;;;;;-1.56;83.11;94777.72;5091183;28;20202;-74
2024/01/12 11:19:43;;;;;;;2.83;1.67;;;;;;;-1.57;84.66;94770.78;5094303;28;20214;-74
2024/01/12 11:22:11;;;;;;;2.22;1.52;;;;;;;-1.63;84.02;94763.81;5093907;28;20206;-75
2024/01/12 11:24:42;;;;;;;9.35;4.90;;;;;;;-1.65;84.50;94773.09;5093878;28;20206;-73
2024/01/12 11:27:13;;;;;;;1.50;1.40;;;;;;;-1.35;83.70;94777.91;5089762;28;20198;-75
2024/01/12 11:29:41;;;;;;;2.45;2.22;;;;;;;-1.46;82.66;94767.19;5093460;28;20210;-75
2024/01/12 11:32:08;;;;;;;0.60;0.60;;;;;;;-1.38;82.99;94779.25;5093908;28;20237;-74
2024/01/12 11:34:38;;;;;;;3.17;2.40;;;;;;;-1.65;83.66;94784.50;5093524;28;20223;-73